Jardim Olinda, Brazil
Current Conditions -  °F | °C
As of 2:00 PM on Sunday 25 Jan 2015 (Local Time) from SBDN Reporting Station
Few Clouds Few Clouds  
Wind Chill: 88°   Ceiling: Unl
Heat Index: 90°   Visibility: 6mi
Dew Point: 66°   Wind: 10mph
Humidity: 49%   Direction: 10°N
Pressure: 29.91"   Gusts: NA
Location:  22.55°S, 52.04°W
Report Text: SBDN 251600Z 01009KT 9999 FEW035 31/19 Q1013
Loading
Personal Weather Stations






























Interactive Weather Map New forecast layout! Learn more

10-Day Weather Forecast

Advertisements
Track Severe Weather on mobile